Time;durP1;ratioP1;P1;durP2;ratioP2;P2;SDS_P1;SDS_P2;PMS_P1;PMS_P2;Temp;Humidity;BMP_temperature;BMP_pressure;BME280_temperature;BME280_humidity;BME280_pressure;Samples;Min_cycle;Max_cycle;Signal;HPM_P1;HPM_P2
2021/04/29 00:01:34;;;;;;;3.47;1.63;;;12.10;99.90;;;;;;4937658;29;20599;-77
2021/04/29 00:04:00;;;;;;;2.97;2.78;;;12.10;99.90;;;;;;4937752;29;20525;-77
2021/04/29 00:06:25;;;;;;;8.10;1.73;;;12.00;99.90;;;;;;4937756;29;20246;-78
2021/04/29 00:08:51;;;;;;;2.45;1.88;;;12.10;99.90;;;;;;4952417;29;20234;-78
2021/04/29 00:11:16;;;;;;;3.85;2.55;;;12.00;99.90;;;;;;4937513;29;20278;-78
2021/04/29 00:13:42;;;;;;;5.38;3.38;;;12.00;99.90;;;;;;4937509;29;20632;-78
2021/04/29 00:16:08;;;;;;;5.97;4.18;;;11.90;99.90;;;;;;4937434;29;20206;-77
2021/04/29 00:18:33;;;;;;;3.28;2.70;;;11.90;99.90;;;;;;4937421;28;20166;-77
2021/04/29 00:21:00;;;;;;;6.60;1.80;;;11.90;99.90;;;;;;4952016;28;20602;-78
2021/04/29 00:23:28;;;;;;;5.55;3.08;;;11.70;99.90;;;;;;4936648;28;20178;-78
2021/04/29 00:25:54;;;;;;;2.25;2.15;;;11.60;99.90;;;;;;4951934;29;20647;-78
2021/04/29 00:28:20;;;;;;;5.88;2.65;;;11.60;99.90;;;;;;4937116;29;20195;-78
2021/04/29 00:30:47;;;;;;;3.33;3.03;;;11.60;99.90;;;;;;4937167;29;20194;-78
2021/04/29 00:33:13;;;;;;;1.77;1.67;;;11.50;99.90;;;;;;4937038;29;20170;-77
2021/04/29 00:35:38;;;;;;;0.90;0.90;;;11.60;99.90;;;;;;4937151;29;20171;-78
2021/04/29 00:38:04;;;;;;;1.92;1.83;;;11.50;99.90;;;;;;4936951;29;20526;-77
2021/04/29 00:40:29;;;;;;;2.47;2.30;;;11.40;99.90;;;;;;4935674;29;20256;-78
2021/04/29 00:42:55;;;;;;;1.90;1.80;;;11.50;99.90;;;;;;4936821;29;20196;-78
2021/04/29 00:45:20;;;;;;;5.07;2.65;;;11.10;99.90;;;;;;4936898;29;20227;-78
2021/04/29 00:47:49;;;;;;;8.25;2.97;;;11.10;99.90;;;;;;4951524;29;20183;-78
2021/04/29 00:50:16;;;;;;;2.33;2.10;;;11.10;99.90;;;;;;4936615;29;20211;-77
2021/04/29 00:52:42;;;;;;;11.27;4.03;;;11.00;99.90;;;;;;4936789;29;20156;-77
2021/04/29 00:55:08;;;;;;;1.90;1.80;;;11.10;99.90;;;;;;4936680;29;20193;-77
2021/04/29 00:57:34;;;;;;;10.15;2.72;;;11.00;99.90;;;;;;4936561;29;20219;-78
2021/04/29 01:00:01;;;;;;;3.05;2.25;;;11.00;99.90;;;;;;4936529;29;20235;-77
2021/04/29 01:02:28;;;;;;;6.47;2.58;;;11.00;99.90;;;;;;4936562;29;20252;-77
2021/04/29 01:05:11;;;;;;;4.68;2.67;;;10.80;99.90;;;;;;4936555;29;20250;-78
2021/04/29 01:07:48;;;;;;;1.90;1.75;;;10.90;99.90;;;;;;4936523;29;20175;-78
2021/04/29 01:10:20;;;;;;;1.90;1.75;;;10.90;99.90;;;;;;4935076;29;20222;-78
2021/04/29 01:12:51;;;;;;;2.78;2.30;;;11.00;99.90;;;;;;4936514;29;20152;-78
2021/04/29 01:15:17;;;;;;;2.85;2.65;;;11.20;99.90;;;;;;4936399;29;20257;-77
2021/04/29 01:17:46;;;;;;;2.20;2.00;;;11.30;99.90;;;;;;4936403;29;20253;-78
2021/04/29 01:20:35;;;;;;;3.05;2.65;;;11.40;99.90;;;;;;4936168;29;20594;-78
2021/04/29 01:23:08;;;;;;;4.72;2.47;;;11.50;99.90;;;;;;4936237;29;20168;-77
2021/04/29 01:25:39;;;;;;;7.88;2.88;;;11.50;99.90;;;;;;4936439;29;20499;-77
2021/04/29 01:28:05;;;;;;;2.45;1.13;;;11.40;99.90;;;;;;4936329;29;20202;-78
2021/04/29 01:30:32;;;;;;;7.43;4.97;;;11.30;99.90;;;;;;4950748;28;20248;-78
2021/04/29 01:32:58;;;;;;;1.60;1.50;;;11.30;99.90;;;;;;4936036;29;20156;-79
2021/04/29 01:35:24;;;;;;;2.53;2.30;;;11.40;99.90;;;;;;4936218;29;20180;-79
2021/04/29 01:37:51;;;;;;;2.55;2.17;;;11.50;99.90;;;;;;4936093;29;20191;-78
2021/04/29 01:40:17;;;;;;;5.28;2.75;;;11.40;99.90;;;;;;4936058;29;20217;-79
2021/04/29 01:42:43;;;;;;;6.32;1.38;;;11.50;99.90;;;;;;4935991;29;20578;-78
2021/04/29 01:45:10;;;;;;;1.55;1.45;;;11.50;99.90;;;;;;4936056;29;20231;-78
2021/04/29 01:47:36;;;;;;;7.80;2.40;;;11.40;99.90;;;;;;4936033;29;20171;-78
2021/04/29 01:50:05;;;;;;;2.05;1.90;;;11.30;99.90;;;;;;4935777;29;20668;-78
2021/04/29 01:52:32;;;;;;;2.55;1.75;;;11.20;99.90;;;;;;4935955;29;20156;-78
2021/04/29 01:54:59;;;;;;;5.80;2.17;;;11.40;99.90;;;;;;4935831;29;20167;-77
2021/04/29 01:57:24;;;;;;;2.20;2.10;;;11.20;99.90;;;;;;4950300;29;20223;-78
2021/04/29 01:59:50;;;;;;;1.88;1.77;;;10.80;99.90;;;;;;4935708;29;20167;-77
2021/04/29 02:02:15;;;;;;;2.20;2.00;;;10.80;99.90;;;;;;4935762;29;20160;-78
2021/04/29 02:04:41;;;;;;;2.88;1.25;;;10.70;99.90;;;;;;4935837;29;20179;-77
2021/04/29 02:07:06;;;;;;;3.42;2.22;;;10.70;99.90;;;;;;4935508;29;20197;-78
2021/04/29 02:09:33;;;;;;;2.40;2.20;;;10.60;99.90;;;;;;4935727;29;20555;-78
2021/04/29 02:12:00;;;;;;;7.25;2.72;;;10.70;99.90;;;;;;4950300;28;20190;-78
2021/04/29 02:14:36;;;;;;;2.50;2.38;;;10.70;99.90;;;;;;4950417;29;20167;-78
2021/04/29 02:17:09;;;;;;;1.70;1.65;;;10.70;99.90;;;;;;4934457;29;20178;-78
2021/04/29 02:19:39;;;;;;;2.47;2.30;;;10.80;99.90;;;;;;4950397;28;20210;-78
2021/04/29 02:22:05;;;;;;;4.20;3.55;;;10.60;99.90;;;;;;4935558;29;20262;-78
2021/04/29 02:24:32;;;;;;;2.60;2.40;;;10.60;99.90;;;;;;4935563;29;20220;-78
2021/04/29 02:26:59;;;;;;;2.35;1.77;;;10.60;99.90;;;;;;4950251;29;20214;-78
2021/04/29 02:29:25;;;;;;;1.52;1.33;;;10.70;99.90;;;;;;4935551;29;20528;-78
2021/04/29 02:31:52;;;;;;;3.78;2.67;;;10.60;99.90;;;;;;4935608;29;20191;-78
2021/04/29 02:34:19;;;;;;;4.47;3.08;;;10.50;99.90;;;;;;4934627;29;20179;-78
2021/04/29 02:36:45;;;;;;;1.80;1.70;;;10.50;99.90;;;;;;4953508;28;20175;-78
2021/04/29 02:39:11;;;;;;;5.88;2.50;;;10.50;99.90;;;;;;4951709;29;20163;-78
2021/04/29 02:41:37;;;;;;;2.20;2.10;;;10.50;99.90;;;;;;4952881;29;20199;-78
2021/04/29 02:44:03;;;;;;;4.50;2.72;;;10.40;99.90;;;;;;4954531;29;20164;-78
2021/04/29 02:46:29;;;;;;;1.35;1.25;;;10.40;99.90;;;;;;4978598;28;20171;-77
2021/04/29 02:48:55;;;;;;;5.30;2.75;;;10.40;99.90;;;;;;4963616;29;20247;-77
2021/04/29 02:51:21;;;;;;;2.45;1.92;;;10.50;99.90;;;;;;4964137;29;20193;-78
2021/04/29 02:53:47;;;;;;;4.05;2.30;;;10.60;99.90;;;;;;4964038;29;20159;-77
2021/04/29 02:56:13;;;;;;;4.60;4.22;;;10.60;99.90;;;;;;4963625;29;20227;-78
2021/04/29 02:58:43;;;;;;;1.73;1.33;;;10.60;99.90;;;;;;4959942;29;20188;-78
2021/04/29 03:01:10;;;;;;;1.65;1.55;;;10.60;99.90;;;;;;4956026;29;20194;-78
2021/04/29 03:03:36;;;;;;;1.80;1.70;;;10.70;99.90;;;;;;4946550;29;20171;-77
2021/04/29 03:06:03;;;;;;;2.88;2.10;;;10.70;99.90;;;;;;4939360;29;20172;-77
2021/04/29 03:08:29;;;;;;;13.05;2.97;;;10.70;99.90;;;;;;4939105;29;20166;-78
2021/04/29 03:10:55;;;;;;;2.72;2.60;;;10.80;99.90;;;;;;4937546;29;20191;-78
2021/04/29 03:13:21;;;;;;;8.65;3.45;;;10.80;99.90;;;;;;4953747;28;20279;-77
2021/04/29 03:15:46;;;;;;;2.95;1.77;;;10.80;99.90;;;;;;4937557;29;20213;-77
2021/04/29 03:18:12;;;;;;;2.95;2.75;;;10.80;99.90;;;;;;4938777;29;20163;-78
2021/04/29 03:20:37;;;;;;;3.35;1.80;;;11.00;99.90;;;;;;4938608;29;20195;-78
2021/04/29 03:23:03;;;;;;;6.45;2.85;;;11.00;99.90;;;;;;4938595;29;20171;-78
2021/04/29 03:25:28;;;;;;;2.28;2.00;;;11.00;99.90;;;;;;4938398;29;20627;-78
2021/04/29 03:27:54;;;;;;;1.48;1.38;;;10.90;99.90;;;;;;4953479;28;20190;-77
2021/04/29 03:30:20;;;;;;;2.03;1.92;;;10.70;99.90;;;;;;4952769;28;20310;-78
2021/04/29 03:32:46;;;;;;;2.42;2.22;;;10.70;99.90;;;;;;4938370;29;20167;-78
2021/04/29 03:35:11;;;;;;;3.15;2.05;;;10.80;99.90;;;;;;4938469;29;20541;-78
2021/04/29 03:37:37;;;;;;;3.42;1.77;;;10.90;99.90;;;;;;4953000;29;20254;-78
2021/04/29 03:40:03;;;;;;;14.27;4.57;;;10.90;99.90;;;;;;4952895;29;20686;-78
2021/04/29 03:42:29;;;;;;;2.53;1.30;;;10.90;99.90;;;;;;4938217;29;20180;-78
2021/04/29 03:44:55;;;;;;;1.80;1.50;;;10.70;99.90;;;;;;4938230;29;20531;-78
2021/04/29 03:47:20;;;;;;;5.40;1.80;;;10.60;99.90;;;;;;4938170;29;20521;-78
2021/04/29 03:49:46;;;;;;;2.33;1.60;;;10.70;99.90;;;;;;4937707;29;20203;-78
2021/04/29 03:52:12;;;;;;;1.95;1.45;;;10.70;99.90;;;;;;4937974;29;20165;-78
2021/04/29 03:54:37;;;;;;;4.68;2.15;;;10.70;99.90;;;;;;4938024;29;20167;-78
2021/04/29 03:57:03;;;;;;;2.80;2.55;;;10.70;99.90;;;;;;4936507;29;20223;-78
2021/04/29 03:59:29;;;;;;;2.80;1.88;;;10.50;99.90;;;;;;4936564;29;20171;-78
2021/04/29 04:01:54;;;;;;;2.50;2.30;;;10.50;99.90;;;;;;4952302;28;20217;-78
2021/04/29 04:04:20;;;;;;;4.80;3.05;;;10.60;99.90;;;;;;4937640;29;20226;-78
2021/04/29 04:06:46;;;;;;;1.60;1.50;;;10.50;99.90;;;;;;4937439;29;20167;-78
2021/04/29 04:09:11;;;;;;;2.17;1.95;;;10.60;99.90;;;;;;4937440;29;20274;-78
2021/04/29 04:11:37;;;;;;;4.13;3.30;;;10.70;99.90;;;;;;4937327;29;20730;-78
2021/04/29 04:14:03;;;;;;;1.95;1.42;;;10.60;99.90;;;;;;4937314;29;20179;-78
2021/04/29 04:16:29;;;;;;;9.65;2.83;;;10.70;99.90;;;;;;4937357;29;20206;-78
2021/04/29 04:18:56;;;;;;;4.32;2.42;;;10.70;99.90;;;;;;4937399;29;20691;-78
2021/04/29 04:21:21;;;;;;;2.50;2.20;;;10.60;99.90;;;;;;4937068;29;20202;-78
2021/04/29 04:23:47;;;;;;;1.27;1.23;;;10.70;99.90;;;;;;4935965;29;20171;-78
2021/04/29 04:26:13;;;;;;;2.47;1.92;;;10.60;99.90;;;;;;4937268;29;20171;-78
2021/04/29 04:28:39;;;;;;;4.20;2.55;;;10.60;99.90;;;;;;4937155;29;20179;-78
2021/04/29 04:31:04;;;;;;;2.38;2.15;;;10.70;99.90;;;;;;4937112;29;20207;-78
2021/04/29 04:33:30;;;;;;;12.30;2.10;;;10.70;99.90;;;;;;4937114;29;20163;-78
2021/04/29 04:35:55;;;;;;;3.38;2.88;;;10.70;99.90;;;;;;4937076;29;20269;-78
2021/04/29 04:38:21;;;;;;;2.22;2.13;;;10.80;99.90;;;;;;4937020;29;20647;-78
2021/04/29 04:40:46;;;;;;;7.00;2.40;;;10.70;99.90;;;;;;4936885;29;20196;-78
2021/04/29 04:43:12;;;;;;;3.47;3.28;;;10.60;99.90;;;;;;4936693;29;20242;-78
2021/04/29 04:45:42;;;;;;;1.75;1.65;;;10.60;99.90;;;;;;4936765;29;20530;-80
2021/04/29 04:48:08;;;;;;;2.53;2.22;;;10.60;99.90;;;;;;4936794;29;20255;-77
2021/04/29 04:50:34;;;;;;;2.80;2.70;;;10.70;99.90;;;;;;4936620;29;20289;-78
2021/04/29 04:52:59;;;;;;;2.22;2.03;;;10.50;99.90;;;;;;4936730;29;20251;-77
2021/04/29 04:55:25;;;;;;;3.50;2.65;;;10.50;99.90;;;;;;4936491;29;20171;-77
2021/04/29 04:57:50;;;;;;;2.33;2.15;;;10.50;99.90;;;;;;4936330;29;20215;-77
2021/04/29 05:00:17;;;;;;;2.50;2.28;;;10.40;99.90;;;;;;4936332;29;20191;-77
2021/04/29 05:02:42;;;;;;;3.85;2.40;;;10.50;99.90;;;;;;4936361;29;20199;-78
2021/04/29 05:05:09;;;;;;;2.30;2.05;;;10.30;99.90;;;;;;4937007;29;20195;-80
2021/04/29 05:07:35;;;;;;;1.30;1.30;;;10.20;99.90;;;;;;4936301;29;20179;-78
2021/04/29 05:10:01;;;;;;;2.58;2.38;;;10.10;99.90;;;;;;4936200;29;20210;-77
2021/04/29 05:12:26;;;;;;;2.97;2.58;;;10.00;99.90;;;;;;4936379;29;20166;-77
2021/04/29 05:14:52;;;;;;;2.28;2.10;;;10.10;99.90;;;;;;4936065;29;20638;-77
2021/04/29 05:17:17;;;;;;;3.75;2.70;;;10.20;99.90;;;;;;4935945;29;20163;-80
2021/04/29 05:19:44;;;;;;;4.63;2.35;;;10.30;99.90;;;;;;4936246;29;20217;-77
2021/04/29 05:22:10;;;;;;;5.65;3.67;;;10.40;99.90;;;;;;4936188;29;20212;-80
2021/04/29 05:24:36;;;;;;;4.28;3.97;;;10.50;99.90;;;;;;4934574;29;20175;-78
2021/04/29 05:27:02;;;;;;;2.53;2.38;;;10.50;99.90;;;;;;4935882;29;20186;-80
2021/04/29 05:29:27;;;;;;;2.92;2.65;;;10.50;99.90;;;;;;4935701;29;20195;-80
2021/04/29 05:31:53;;;;;;;2.85;2.65;;;10.30;99.90;;;;;;4935817;29;20191;-78
2021/04/29 05:34:19;;;;;;;3.50;3.25;;;10.30;99.90;;;;;;4936077;29;20228;-80
2021/04/29 05:36:44;;;;;;;5.80;3.95;;;10.40;99.90;;;;;;4936410;29;20182;-81
2021/04/29 05:39:10;;;;;;;2.75;2.55;;;10.40;99.90;;;;;;4935233;29;20167;-80
2021/04/29 05:41:35;;;;;;;2.92;2.72;;;10.40;99.90;;;;;;4936237;29;20611;-79
2021/04/29 05:44:01;;;;;;;8.18;2.78;;;10.40;99.90;;;;;;4936167;29;20207;-79
2021/04/29 05:46:27;;;;;;;2.63;2.05;;;10.30;99.90;;;;;;4936181;29;20218;-79
2021/04/29 05:48:52;;;;;;;1.65;1.50;;;10.30;99.90;;;;;;4935943;29;20195;-78
2021/04/29 05:51:18;;;;;;;6.30;3.20;;;10.20;99.90;;;;;;4935046;29;20191;-80
2021/04/29 05:53:43;;;;;;;2.55;2.42;;;10.30;99.90;;;;;;4935435;29;20219;-78
2021/04/29 05:56:09;;;;;;;5.35;2.60;;;10.40;99.90;;;;;;4935415;29;20593;-78
2021/04/29 05:58:35;;;;;;;2.67;1.92;;;10.40;99.90;;;;;;4935310;29;20556;-79
2021/04/29 06:01:02;;;;;;;1.73;1.63;;;10.30;99.90;;;;;;4950028;28;20234;-78
2021/04/29 06:03:28;;;;;;;3.10;1.88;;;10.50;99.90;;;;;;4935221;29;20163;-79
2021/04/29 06:05:53;;;;;;;2.45;2.28;;;10.60;99.90;;;;;;4950250;29;20296;-78
2021/04/29 06:08:19;;;;;;;3.45;3.15;;;10.40;99.90;;;;;;4935595;29;20215;-80
2021/04/29 06:10:45;;;;;;;4.25;3.83;;;10.20;99.90;;;;;;4935914;29;20769;-79
2021/04/29 06:13:11;;;;;;;6.85;3.17;;;10.30;99.90;;;;;;4935717;29;20166;-79
2021/04/29 06:15:37;;;;;;;2.80;2.30;;;10.50;99.90;;;;;;4935882;29;20171;-78
2021/04/29 06:18:03;;;;;;;2.75;2.55;;;10.50;99.90;;;;;;4935456;29;20163;-78
2021/04/29 06:20:28;;;;;;;2.83;2.55;;;10.60;99.90;;;;;;4936747;29;20179;-87
2021/04/29 06:22:54;;;;;;;8.13;2.90;;;10.80;99.90;;;;;;4954430;28;20175;-79
2021/04/29 06:25:20;;;;;;;1.48;1.38;;;11.00;99.90;;;;;;4937790;29;20635;-79
2021/04/29 06:27:46;;;;;;;9.73;2.88;;;11.00;99.90;;;;;;4938750;29;20634;-80
2021/04/29 06:30:12;;;;;;;2.15;1.95;;;10.80;99.90;;;;;;4938003;29;20277;-80
2021/04/29 06:32:38;;;;;;;8.90;4.05;;;10.60;99.90;;;;;;4939328;29;20589;-79
2021/04/29 06:35:05;;;;;;;2.55;2.35;;;10.70;99.90;;;;;;4938120;29;20275;-79
2021/04/29 06:37:30;;;;;;;3.75;2.38;;;10.70;99.90;;;;;;4938152;29;20171;-79
2021/04/29 06:39:56;;;;;;;1.13;1.10;;;10.40;99.90;;;;;;4939404;29;20891;-78
2021/04/29 06:42:22;;;;;;;9.00;3.90;;;10.40;99.90;;;;;;4939143;29;20166;-78
2021/04/29 06:44:47;;;;;;;5.93;3.80;;;10.50;99.90;;;;;;4939263;29;20653;-78
2021/04/29 06:47:17;;;;;;;2.72;2.53;;;10.60;99.90;;;;;;4939221;29;20170;-78
2021/04/29 06:49:43;;;;;;;1.95;1.80;;;10.70;99.90;;;;;;4938855;29;20604;-78
2021/04/29 06:52:08;;;;;;;2.20;2.10;;;10.50;99.90;;;;;;4938611;29;20198;-78
2021/04/29 06:54:34;;;;;;;2.08;1.92;;;10.60;99.90;;;;;;4938760;29;20171;-79
2021/04/29 06:56:59;;;;;;;1.95;1.75;;;10.60;99.90;;;;;;4938132;29;20646;-78
2021/04/29 06:59:25;;;;;;;1.85;1.75;;;10.80;99.90;;;;;;4937480;29;20198;-77
2021/04/29 07:01:51;;;;;;;3.75;1.77;;;10.80;99.90;;;;;;4938178;29;20242;-78
2021/04/29 07:04:16;;;;;;;2.85;1.70;;;11.00;99.90;;;;;;4938154;29;20163;-78
2021/04/29 07:06:42;;;;;;;0.60;0.60;;;11.00;99.90;;;;;;4937353;29;20638;-78
2021/04/29 07:09:08;;;;;;;1.55;1.45;;;10.90;99.90;;;;;;4938775;29;20192;-78
2021/04/29 07:11:33;;;;;;;3.53;1.15;;;10.90;99.90;;;;;;4940677;29;20198;-79
2021/04/29 07:13:59;;;;;;;1.00;1.00;;;10.70;99.90;;;;;;4957711;28;20222;-78
2021/04/29 07:16:24;;;;;;;2.05;1.85;;;10.50;99.90;;;;;;4958207;28;20523;-78
2021/04/29 07:18:51;;;;;;;1.67;1.58;;;10.70;99.90;;;;;;4957712;28;20626;-78
2021/04/29 07:21:16;;;;;;;0.75;0.75;;;10.50;99.90;;;;;;4957345;28;20552;-78
2021/04/29 07:23:46;;;;;;;0.77;0.77;;;10.50;99.90;;;;;;4949688;28;20165;-79
2021/04/29 07:26:12;;;;;;;0.85;0.85;;;10.50;99.90;;;;;;4937039;29;20226;-78
2021/04/29 07:28:38;;;;;;;5.13;2.72;;;10.50;99.90;;;;;;4936737;29;20210;-79
2021/04/29 07:31:04;;;;;;;0.85;0.85;;;10.50;99.90;;;;;;4937281;28;20656;-78
2021/04/29 07:33:29;;;;;;;1.38;1.08;;;10.40;99.90;;;;;;4938297;29;20163;-78
2021/04/29 07:35:55;;;;;;;4.22;1.05;;;10.30;99.90;;;;;;4938238;29;20163;-80
2021/04/29 07:38:20;;;;;;;2.08;1.95;;;10.40;99.90;;;;;;4952914;28;20541;-80
2021/04/29 07:40:46;;;;;;;2.40;1.40;;;10.20;99.90;;;;;;4944838;29;20218;-79
2021/04/29 07:43:12;;;;;;;3.22;1.42;;;10.30;99.90;;;;;;4948450;29;20195;-78
2021/04/29 07:45:37;;;;;;;1.30;1.30;;;10.20;99.90;;;;;;4957140;29;20198;-80
2021/04/29 07:48:04;;;;;;;0.73;0.73;;;10.10;99.90;;;;;;4950610;29;20255;-79
2021/04/29 07:50:31;;;;;;;7.57;2.47;;;10.30;99.90;;;;;;4940185;29;20223;-77
2021/04/29 07:52:57;;;;;;;0.50;0.50;;;10.00;99.90;;;;;;4938374;29;20159;-78
2021/04/29 07:55:23;;;;;;;1.02;1.02;;;9.90;99.90;;;;;;4938065;29;20177;-78
2021/04/29 07:57:49;;;;;;;4.38;1.20;;;9.80;99.90;;;;;;4937148;29;20703;-79
2021/04/29 08:00:15;;;;;;;0.55;0.55;;;9.70;99.90;;;;;;4937350;29;20191;-79
2021/04/29 08:02:44;;;;;;;0.70;0.70;;;9.60;99.90;;;;;;4937578;29;20171;-78
2021/04/29 08:05:10;;;;;;;1.40;1.20;;;9.70;99.90;;;;;;4936413;29;20638;-78
2021/04/29 08:07:36;;;;;;;0.77;0.77;;;9.70;99.90;;;;;;4938058;29;20175;-78
2021/04/29 08:10:04;;;;;;;0.52;0.40;;;9.50;99.90;;;;;;4937542;29;20195;-78
2021/04/29 08:12:29;;;;;;;0.55;0.55;;;9.30;99.90;;;;;;4937676;29;20654;-78
2021/04/29 08:14:58;;;;;;;1.08;1.00;;;9.30;99.90;;;;;;4937652;29;20176;-79
2021/04/29 08:17:24;;;;;;;0.30;0.30;;;9.20;99.90;;;;;;4937600;29;20253;-79
2021/04/29 08:19:50;;;;;;;0.40;0.40;;;9.20;99.90;;;;;;4937350;29;20655;-80
2021/04/29 08:22:16;;;;;;;2.15;1.50;;;9.10;99.90;;;;;;4937635;29;20566;-79
2021/04/29 08:24:41;;;;;;;0.95;0.85;;;9.20;99.90;;;;;;4937713;29;20175;-79
2021/04/29 08:27:07;;;;;;;0.60;0.60;;;9.10;99.90;;;;;;4937316;29;20188;-80
2021/04/29 08:29:32;;;;;;;0.30;0.30;;;9.00;99.90;;;;;;4937401;29;20201;-78
2021/04/29 08:31:59;;;;;;;0.85;0.85;;;9.10;99.90;;;;;;4936968;29;20195;-79
2021/04/29 08:34:25;;;;;;;0.75;0.75;;;9.10;99.90;;;;;;4936859;29;20164;-79
2021/04/29 08:36:51;;;;;;;17.65;2.72;;;9.10;99.90;;;;;;4936311;29;20263;-78
2021/04/29 08:39:16;;;;;;;0.47;0.47;;;9.20;99.90;;;;;;4935688;29;20202;-79
2021/04/29 08:41:43;;;;;;;0.50;0.50;;;9.10;99.90;;;;;;4937077;29;20190;-77
2021/04/29 08:44:09;;;;;;;0.40;0.40;;;9.30;99.90;;;;;;4936087;29;20583;-77
2021/04/29 08:46:35;;;;;;;1.23;0.85;;;9.30;99.90;;;;;;4936566;29;20168;-78
2021/04/29 08:49:01;;;;;;;0.65;0.65;;;9.10;99.90;;;;;;4936658;29;20210;-78
2021/04/29 08:51:27;;;;;;;11.50;0.75;;;9.10;99.90;;;;;;4936564;29;20183;-77
2021/04/29 08:53:54;;;;;;;0.40;0.40;;;9.30;99.90;;;;;;4936738;29;20218;-78
2021/04/29 08:56:23;;;;;;;1.02;0.98;;;9.20;99.90;;;;;;4935017;29;20229;-77
2021/04/29 08:58:58;;;;;;;0.70;0.70;;;9.10;99.90;;;;;;4935341;29;20202;-78
2021/04/29 09:01:24;;;;;;;0.30;0.30;;;9.10;99.90;;;;;;4936549;29;20277;-78
2021/04/29 09:03:51;;;;;;;29.13;0.98;;;9.20;99.90;;;;;;4936434;29;20171;-77
2021/04/29 09:06:17;;;;;;;1.45;1.35;;;9.50;99.90;;;;;;4936744;29;20155;-77
2021/04/29 09:08:46;;;;;;;0.50;0.50;;;9.70;99.90;;;;;;4935177;29;20250;-77
2021/04/29 09:11:18;;;;;;;1.98;1.10;;;10.10;99.90;;;;;;4935183;29;20203;-78
2021/04/29 09:13:58;;;;;;;3.85;1.35;;;10.20;99.90;;;;;;4935454;29;20635;-78
2021/04/29 09:16:24;;;;;;;0.73;0.73;;;10.10;99.90;;;;;;4935413;29;20250;-79
2021/04/29 09:18:49;;;;;;;10.23;3.17;;;10.20;99.90;;;;;;4936393;29;20319;-78
2021/04/29 09:21:16;;;;;;;0.35;0.35;;;9.80;99.90;;;;;;4936289;29;20203;-78
2021/04/29 09:23:47;;;;;;;0.70;0.70;;;9.70;99.90;;;;;;4936325;29;20174;-78
2021/04/29 09:26:18;;;;;;;0.88;0.88;;;9.70;99.90;;;;;;4934580;29;20257;-78
2021/04/29 09:28:45;;;;;;;2.95;0.45;;;9.70;99.90;;;;;;4935986;29;20654;-78
2021/04/29 09:31:13;;;;;;;1.35;1.05;;;9.80;99.90;;;;;;4949561;28;20233;-78
2021/04/29 09:33:44;;;;;;;0.88;0.50;;;10.00;99.90;;;;;;4955172;28;20608;-78
2021/04/29 09:36:25;;;;;;;1.27;0.82;;;9.70;99.90;;;;;;4955406;28;20154;-80
2021/04/29 09:38:54;;;;;;;0.63;0.63;;;9.50;99.90;;;;;;4956143;28;20556;-80
2021/04/29 09:41:33;;;;;;;0.68;0.63;;;9.50;99.90;;;;;;4953900;28;20198;-80
2021/04/29 09:44:02;;;;;;;0.77;0.77;;;9.20;99.90;;;;;;4955808;28;20166;-80
2021/04/29 09:46:44;;;;;;;0.55;0.55;;;9.00;99.90;;;;;;4953777;28;20178;-80
2021/04/29 09:49:26;;;;;;;0.40;0.40;;;9.00;99.90;;;;;;4955108;28;20194;-82
2021/04/29 09:51:54;;;;;;;1.95;0.80;;;9.10;99.90;;;;;;4954976;28;20194;-79
2021/04/29 09:54:28;;;;;;;2.60;2.40;;;9.30;99.90;;;;;;4954949;28;20181;-79
2021/04/29 09:57:00;;;;;;;0.82;0.82;;;9.30;99.90;;;;;;4955085;28;20238;-81
2021/04/29 09:59:26;;;;;;;0.52;0.52;;;9.30;99.90;;;;;;4955285;28;20158;-79
2021/04/29 10:01:56;;;;;;;1.05;0.70;;;9.50;99.90;;;;;;4953850;28;20194;-79
2021/04/29 10:04:25;;;;;;;0.70;0.70;;;9.50;99.90;;;;;;4953472;28;20583;-80
2021/04/29 10:06:53;;;;;;;0.82;0.80;;;9.60;99.90;;;;;;4954829;28;20166;-80
2021/04/29 10:09:24;;;;;;;0.47;0.47;;;9.20;99.90;;;;;;4953648;28;20206;-81
2021/04/29 10:11:54;;;;;;;10.05;0.45;;;9.10;99.90;;;;;;4954954;28;20273;-78
2021/04/29 10:14:21;;;;;;;0.90;0.90;;;9.20;99.90;;;;;;4955035;28;20174;-82
2021/04/29 10:16:46;;;;;;;0.80;0.80;;;9.20;99.90;;;;;;4956306;28;20526;-78
2021/04/29 10:19:13;;;;;;;1.30;1.20;;;9.30;99.90;;;;;;4967688;29;20194;-80
2021/04/29 10:21:38;;;;;;;2.45;2.15;;;9.30;99.90;;;;;;4971275;28;20205;-80
2021/04/29 10:24:05;;;;;;;0.63;0.63;;;9.40;99.90;;;;;;4966979;28;20663;-79
2021/04/29 10:26:32;;;;;;;0.43;0.43;;;9.30;99.90;;;;;;4954516;29;20178;-80
2021/04/29 10:29:06;;;;;;;0.60;0.60;;;9.40;99.90;;;;;;4955775;28;20163;-79
2021/04/29 10:31:34;;;;;;;0.57;0.57;;;9.30;99.90;;;;;;4954861;28;20590;-78
2021/04/29 10:34:15;;;;;;;0.50;0.50;;;9.40;99.90;;;;;;4954802;28;20611;-78
2021/04/29 10:36:43;;;;;;;3.80;1.17;;;9.40;99.90;;;;;;4955124;28;20244;-79
2021/04/29 10:39:17;;;;;;;0.85;0.82;;;9.60;99.90;;;;;;4955382;28;20162;-79
2021/04/29 10:41:49;;;;;;;0.45;0.45;;;10.00;99.90;;;;;;4955624;28;20667;-79
2021/04/29 10:44:19;;;;;;;0.75;0.75;;;10.30;99.90;;;;;;4955936;28;20498;-80
2021/04/29 10:46:49;;;;;;;1.15;1.00;;;10.50;99.90;;;;;;4955321;28;20159;-79
2021/04/29 10:49:16;;;;;;;0.60;0.60;;;10.50;99.90;;;;;;4954964;28;20210;-80
2021/04/29 10:51:45;;;;;;;0.57;0.50;;;10.50;99.90;;;;;;4954556;28;20186;-81
2021/04/29 10:54:19;;;;;;;1.30;1.20;;;10.50;99.90;;;;;;4954548;28;20163;-80
2021/04/29 10:57:06;;;;;;;1.30;1.20;;;10.10;99.90;;;;;;4954276;28;20262;-79
2021/04/29 10:59:48;;;;;;;1.80;1.17;;;10.10;99.90;;;;;;4954399;28;20178;-79
2021/04/29 11:02:26;;;;;;;0.70;0.70;;;9.90;99.90;;;;;;4954351;28;20155;-79
2021/04/29 11:04:52;;;;;;;1.08;0.73;;;10.00;99.90;;;;;;4954283;28;20241;-81
2021/04/29 11:07:20;;;;;;;0.85;0.85;;;10.30;99.90;;;;;;4956697;28;20177;-80
2021/04/29 11:10:01;;;;;;;0.95;0.95;;;10.40;99.90;;;;;;4951600;28;20210;-79
2021/04/29 11:12:50;;;;;;;0.82;0.82;;;10.20;99.90;;;;;;4952955;28;20170;-80
2021/04/29 11:15:31;;;;;;;17.23;2.63;;;10.10;99.90;;;;;;4956333;29;20679;-80
2021/04/29 11:18:16;;;;;;;0.63;0.63;;;10.60;99.90;;;;;;4956400;28;20186;-80
2021/04/29 11:20:52;;;;;;;1.08;1.08;;;11.00;99.90;;;;;;4956345;28;20191;-81
2021/04/29 11:23:27;;;;;;;0.40;0.40;;;10.70;99.90;;;;;;4956896;29;20174;-80
2021/04/29 11:26:08;;;;;;;1.20;1.20;;;10.60;99.90;;;;;;4946830;28;20166;-79
2021/04/29 11:28:33;;;;;;;1.15;0.93;;;10.50;99.90;;;;;;4938087;29;20528;-80
2021/04/29 11:30:59;;;;;;;2.08;1.30;;;10.60;99.90;;;;;;4936635;29;20219;-80
2021/04/29 11:33:36;;;;;;;1.52;1.42;;;10.70;99.90;;;;;;4938208;29;20591;-80
2021/04/29 11:36:18;;;;;;;1.58;1.48;;;10.60;99.90;;;;;;4936653;29;20171;-80
2021/04/29 11:38:58;;;;;;;6.43;0.98;;;10.40;99.90;;;;;;4936447;29;20194;-79
2021/04/29 11:41:25;;;;;;;4.07;0.80;;;10.10;99.90;;;;;;4947524;29;20198;-79
2021/04/29 11:44:12;;;;;;;0.70;0.70;;;10.30;99.90;;;;;;4956778;28;20295;-79
2021/04/29 11:46:37;;;;;;;1.45;1.35;;;10.20;99.90;;;;;;4956710;28;20197;-79
2021/04/29 11:49:08;;;;;;;1.77;1.67;;;10.10;99.90;;;;;;4956410;28;20195;-79
2021/04/29 11:51:43;;;;;;;1.95;1.70;;;10.00;99.90;;;;;;4956477;28;20197;-79
2021/04/29 11:54:09;;;;;;;0.95;0.95;;;9.90;99.90;;;;;;4956529;28;20637;-79
2021/04/29 11:56:42;;;;;;;0.85;0.80;;;10.00;99.90;;;;;;4950472;29;20235;-80
2021/04/29 11:59:09;;;;;;;0.60;0.60;;;10.00;99.90;;;;;;4937611;29;20163;-79
2021/04/29 12:01:36;;;;;;;0.77;0.77;;;10.10;99.90;;;;;;4952105;28;20499;-80
2021/04/29 12:04:19;;;;;;;20.13;2.50;;;10.20;99.90;;;;;;4944357;29;20167;-80
2021/04/29 12:06:52;;;;;;;2.38;2.08;;;10.50;99.90;;;;;;4937434;29;20170;-81
2021/04/29 12:09:20;;;;;;;1.27;0.80;;;10.60;99.90;;;;;;4936123;29;20219;-81
2021/04/29 12:11:45;;;;;;;0.65;0.65;;;10.80;99.90;;;;;;4949061;29;20282;-81
2021/04/29 12:14:26;;;;;;;5.43;0.60;;;11.00;99.90;;;;;;4940972;28;20631;-81
2021/04/29 12:17:00;;;;;;;0.90;0.90;;;11.10;99.90;;;;;;4936262;29;20261;-81
2021/04/29 12:19:26;;;;;;;13.85;1.48;;;11.20;99.90;;;;;;4936362;29;20230;-80
2021/04/29 12:21:53;;;;;;;1.67;1.58;;;11.10;99.90;;;;;;4937063;29;20183;-80
2021/04/29 12:24:19;;;;;;;2.35;1.42;;;11.00;99.90;;;;;;4937781;29;20233;-81
2021/04/29 12:26:44;;;;;;;1.02;1.02;;;11.10;99.90;;;;;;4935930;29;20678;-79
2021/04/29 12:29:12;;;;;;;2.25;2.05;;;11.00;99.90;;;;;;4937588;29;20199;-80
2021/04/29 12:31:51;;;;;;;1.92;1.80;;;11.10;99.90;;;;;;4936092;29;20195;-79
2021/04/29 12:34:19;;;;;;;1.38;1.27;;;11.10;99.90;;;;;;4937620;29;20186;-82
2021/04/29 12:37:06;;;;;;;0.68;0.68;;;11.00;99.90;;;;;;4937318;29;20211;-81
2021/04/29 12:39:38;;;;;;;1.42;1.33;;;10.60;99.90;;;;;;4953588;29;20175;-79
2021/04/29 12:42:07;;;;;;;0.80;0.80;;;10.80;99.90;;;;;;4958462;28;20193;-81
2021/04/29 12:44:42;;;;;;;0.40;0.40;;;10.80;99.90;;;;;;4957264;29;20171;-80
2021/04/29 12:47:10;;;;;;;8.48;2.72;;;10.50;99.90;;;;;;4957456;28;20170;-81
2021/04/29 12:49:37;;;;;;;1.17;1.05;;;10.60;99.90;;;;;;4956253;28;20605;-79
2021/04/29 12:52:11;;;;;;;1.40;0.93;;;10.70;99.90;;;;;;4955265;28;20182;-81